sensor_id;sensor_type;location;lat;lon;timestamp;P1;P2;P0
51258;PMS7003;37327;54.254;18.504;2023-03-15T00:02:03;0;0;0
51258;PMS7003;37327;54.254;18.504;2023-03-15T00:05:20;0;0;0
51258;PMS7003;37327;54.254;18.504;2023-03-15T00:08:38;0;0;0
51258;PMS7003;37327;54.254;18.504;2023-03-15T00:11:56;0;0;0
51258;PMS7003;37327;54.254;18.504;2023-03-15T00:15:13;0;0;0
51258;PMS7003;37327;54.254;18.504;2023-03-15T00:18:32;0;0;0
51258;PMS7003;37327;54.254;18.504;2023-03-15T00:21:49;0;0;0
51258;PMS7003;37327;54.254;18.504;2023-03-15T00:25:06;0;0;0
51258;PMS7003;37327;54.254;18.504;2023-03-15T00:28:24;0;0;0
51258;PMS7003;37327;54.254;18.504;2023-03-15T00:31:42;2;0;0
51258;PMS7003;37327;54.254;18.504;2023-03-15T00:34:59;0;0;0
51258;PMS7003;37327;54.254;18.504;2023-03-15T00:38:17;0;0;0
51258;PMS7003;37327;54.254;18.504;2023-03-15T00:41:34;0;0;0
51258;PMS7003;37327;54.254;18.504;2023-03-15T00:44:52;0;0;0
51258;PMS7003;37327;54.254;18.504;2023-03-15T00:48:12;0;0;0
51258;PMS7003;37327;54.254;18.504;2023-03-15T00:51:30;0;0;0
51258;PMS7003;37327;54.254;18.504;2023-03-15T00:54:52;0;0;0
51258;PMS7003;37327;54.254;18.504;2023-03-15T00:58:11;0;0;0
51258;PMS7003;37327;54.254;18.504;2023-03-15T01:01:28;0;0;0
51258;PMS7003;37327;54.254;18.504;2023-03-15T01:04:46;0;0;0
51258;PMS7003;37327;54.254;18.504;2023-03-15T01:08:04;0;0;0
51258;PMS7003;37327;54.254;18.504;2023-03-15T01:11:22;0;0;0
51258;PMS7003;37327;54.254;18.504;2023-03-15T01:14:42;0;0;0
51258;PMS7003;37327;54.254;18.504;2023-03-15T01:17:59;0;0;0
51258;PMS7003;37327;54.254;18.504;2023-03-15T01:21:17;0;0;0
51258;PMS7003;37327;54.254;18.504;2023-03-15T01:24:35;0;0;0
51258;PMS7003;37327;54.254;18.504;2023-03-15T01:27:52;2;0;0
51258;PMS7003;37327;54.254;18.504;2023-03-15T01:34:34;0;0;0
51258;PMS7003;37327;54.254;18.504;2023-03-15T01:37:52;0;0;0
51258;PMS7003;37327;54.254;18.504;2023-03-15T01:41:12;0;0;0
51258;PMS7003;37327;54.254;18.504;2023-03-15T01:48:00;0;0;0
51258;PMS7003;37327;54.254;18.504;2023-03-15T01:54:48;0;0;0
51258;PMS7003;37327;54.254;18.504;2023-03-15T01:58:13;0;0;0
51258;PMS7003;37327;54.254;18.504;2023-03-15T02:01:31;0;0;0
51258;PMS7003;37327;54.254;18.504;2023-03-15T02:04:54;0;0;0
51258;PMS7003;37327;54.254;18.504;2023-03-15T02:08:23;0;0;0
51258;PMS7003;37327;54.254;18.504;2023-03-15T02:11:44;0;0;0
51258;PMS7003;37327;54.254;18.504;2023-03-15T02:15:03;0;0;0
51258;PMS7003;37327;54.254;18.504;2023-03-15T02:18:22;0;0;0
51258;PMS7003;37327;54.254;18.504;2023-03-15T02:28:40;0;0;0
51258;PMS7003;37327;54.254;18.504;2023-03-15T02:31:58;0;0;0
51258;PMS7003;37327;54.254;18.504;2023-03-15T02:35:26;0;0;0
51258;PMS7003;37327;54.254;18.504;2023-03-15T02:38:46;1;0;0
51258;PMS7003;37327;54.254;18.504;2023-03-15T02:42:05;0;0;0
51258;PMS7003;37327;54.254;18.504;2023-03-15T02:45:23;0;0;0
51258;PMS7003;37327;54.254;18.504;2023-03-15T02:48:42;0;0;0
51258;PMS7003;37327;54.254;18.504;2023-03-15T02:52:02;0;0;0
51258;PMS7003;37327;54.254;18.504;2023-03-15T02:55:20;2;0;0
51258;PMS7003;37327;54.254;18.504;2023-03-15T02:58:37;0;0;0
51258;PMS7003;37327;54.254;18.504;2023-03-15T03:01:54;0;0;0
51258;PMS7003;37327;54.254;18.504;2023-03-15T03:05:12;0;0;0
51258;PMS7003;37327;54.254;18.504;2023-03-15T03:08:31;0;0;0
51258;PMS7003;37327;54.254;18.504;2023-03-15T03:11:48;0;0;0
51258;PMS7003;37327;54.254;18.504;2023-03-15T03:15:06;0;0;0
51258;PMS7003;37327;54.254;18.504;2023-03-15T03:18:25;0;0;0
51258;PMS7003;37327;54.254;18.504;2023-03-15T03:21:51;0;0;0
51258;PMS7003;37327;54.254;18.504;2023-03-15T03:25:09;0;0;0
51258;PMS7003;37327;54.254;18.504;2023-03-15T03:28:29;0;0;0
51258;PMS7003;37327;54.254;18.504;2023-03-15T03:31:48;0;0;0
51258;PMS7003;37327;54.254;18.504;2023-03-15T03:35:06;0;0;0
51258;PMS7003;37327;54.254;18.504;2023-03-15T03:38:24;0;0;0
51258;PMS7003;37327;54.254;18.504;2023-03-15T03:41:41;0;0;0
51258;PMS7003;37327;54.254;18.504;2023-03-15T03:44:59;0;0;0
51258;PMS7003;37327;54.254;18.504;2023-03-15T03:48:16;0;0;0
51258;PMS7003;37327;54.254;18.504;2023-03-15T03:51:33;1;0;0
51258;PMS7003;37327;54.254;18.504;2023-03-15T03:54:52;0;0;0
51258;PMS7003;37327;54.254;18.504;2023-03-15T03:58:09;0;0;0
51258;PMS7003;37327;54.254;18.504;2023-03-15T04:01:27;2;0;0
51258;PMS7003;37327;54.254;18.504;2023-03-15T04:04:44;0;0;0
51258;PMS7003;37327;54.254;18.504;2023-03-15T04:08:05;1;0;0
51258;PMS7003;37327;54.254;18.504;2023-03-15T04:11:23;0;0;0
51258;PMS7003;37327;54.254;18.504;2023-03-15T04:14:42;1;0;0
51258;PMS7003;37327;54.254;18.504;2023-03-15T04:17:59;0;0;0
51258;PMS7003;37327;54.254;18.504;2023-03-15T04:21:21;0;0;0
51258;PMS7003;37327;54.254;18.504;2023-03-15T04:24:38;0;0;0
51258;PMS7003;37327;54.254;18.504;2023-03-15T04:27:55;0;0;0
51258;PMS7003;37327;54.254;18.504;2023-03-15T04:31:18;0;0;0
51258;PMS7003;37327;54.254;18.504;2023-03-15T04:34:35;0;0;0
51258;PMS7003;37327;54.254;18.504;2023-03-15T04:37:55;0;0;0
51258;PMS7003;37327;54.254;18.504;2023-03-15T04:41:13;0;0;0
51258;PMS7003;37327;54.254;18.504;2023-03-15T04:44:32;0;0;0
51258;PMS7003;37327;54.254;18.504;2023-03-15T04:47:49;0;0;0
51258;PMS7003;37327;54.254;18.504;2023-03-15T04:51:07;0;0;0
51258;PMS7003;37327;54.254;18.504;2023-03-15T04:54:25;0;0;0
51258;PMS7003;37327;54.254;18.504;2023-03-15T04:57:42;1;0;0
51258;PMS7003;37327;54.254;18.504;2023-03-15T05:00:59;0;0;0
51258;PMS7003;37327;54.254;18.504;2023-03-15T05:04:17;0;0;0
51258;PMS7003;37327;54.254;18.504;2023-03-15T05:07:34;0;0;0
51258;PMS7003;37327;54.254;18.504;2023-03-15T05:10:52;1;0;0
51258;PMS7003;37327;54.254;18.504;2023-03-15T05:14:10;0;0;0
51258;PMS7003;37327;54.254;18.504;2023-03-15T05:17:27;0;0;0
51258;PMS7003;37327;54.254;18.504;2023-03-15T05:20:45;0;0;0
51258;PMS7003;37327;54.254;18.504;2023-03-15T05:24:03;0;0;0
51258;PMS7003;37327;54.254;18.504;2023-03-15T05:27:21;0;0;0
51258;PMS7003;37327;54.254;18.504;2023-03-15T05:30:38;0;0;0
51258;PMS7003;37327;54.254;18.504;2023-03-15T05:33:57;0;0;0
51258;PMS7003;37327;54.254;18.504;2023-03-15T05:37:14;0;0;0
51258;PMS7003;37327;54.254;18.504;2023-03-15T05:40:31;0;0;0
51258;PMS7003;37327;54.254;18.504;2023-03-15T05:43:49;0;0;0
51258;PMS7003;37327;54.254;18.504;2023-03-15T05:47:07;0;0;0
51258;PMS7003;37327;54.254;18.504;2023-03-15T05:50:25;0;0;0
51258;PMS7003;37327;54.254;18.504;2023-03-15T05:53:43;0;0;0
51258;PMS7003;37327;54.254;18.504;2023-03-15T05:57:01;0;0;0
51258;PMS7003;37327;54.254;18.504;2023-03-15T06:00:19;0;0;0
51258;PMS7003;37327;54.254;18.504;2023-03-15T06:03:37;0;0;0
51258;PMS7003;37327;54.254;18.504;2023-03-15T06:06:54;1;0;0
51258;PMS7003;37327;54.254;18.504;2023-03-15T06:10:11;0;0;0
51258;PMS7003;37327;54.254;18.504;2023-03-15T06:13:29;0;0;0
51258;PMS7003;37327;54.254;18.504;2023-03-15T06:16:47;0;0;0
51258;PMS7003;37327;54.254;18.504;2023-03-15T06:20:04;0;0;0
51258;PMS7003;37327;54.254;18.504;2023-03-15T06:23:22;0;0;0
51258;PMS7003;37327;54.254;18.504;2023-03-15T06:26:40;0;0;0
51258;PMS7003;37327;54.254;18.504;2023-03-15T06:29:59;0;0;0
51258;PMS7003;37327;54.254;18.504;2023-03-15T06:33:16;0;0;0
51258;PMS7003;37327;54.254;18.504;2023-03-15T06:36:33;0;0;0
51258;PMS7003;37327;54.254;18.504;2023-03-15T06:39:52;0;0;0
51258;PMS7003;37327;54.254;18.504;2023-03-15T06:43:09;0;0;0
51258;PMS7003;37327;54.254;18.504;2023-03-15T06:46:34;0;0;0
51258;PMS7003;37327;54.254;18.504;2023-03-15T06:49:52;1;0;0
51258;PMS7003;37327;54.254;18.504;2023-03-15T06:53:09;0;0;0
51258;PMS7003;37327;54.254;18.504;2023-03-15T06:56:27;0;0;0
51258;PMS7003;37327;54.254;18.504;2023-03-15T06:59:44;0;0;0
51258;PMS7003;37327;54.254;18.504;2023-03-15T07:03:01;0;0;0
51258;PMS7003;37327;54.254;18.504;2023-03-15T07:06:19;0;0;0
51258;PMS7003;37327;54.254;18.504;2023-03-15T07:09:36;0;0;0
51258;PMS7003;37327;54.254;18.504;2023-03-15T07:12:54;3;0;0
51258;PMS7003;37327;54.254;18.504;2023-03-15T07:16:11;0;0;0
51258;PMS7003;37327;54.254;18.504;2023-03-15T07:19:28;0;0;0
51258;PMS7003;37327;54.254;18.504;2023-03-15T07:22:45;0;0;0
51258;PMS7003;37327;54.254;18.504;2023-03-15T07:26:05;0;0;0
51258;PMS7003;37327;54.254;18.504;2023-03-15T07:29:24;0;0;0
51258;PMS7003;37327;54.254;18.504;2023-03-15T07:32:41;0;0;0
51258;PMS7003;37327;54.254;18.504;2023-03-15T07:35:58;0;0;0
51258;PMS7003;37327;54.254;18.504;2023-03-15T07:39:19;0;0;0
51258;PMS7003;37327;54.254;18.504;2023-03-15T07:42:38;0;0;0
51258;PMS7003;37327;54.254;18.504;2023-03-15T07:45:56;0;0;0
51258;PMS7003;37327;54.254;18.504;2023-03-15T07:49:13;0;0;0
51258;PMS7003;37327;54.254;18.504;2023-03-15T07:52:30;0;0;0
51258;PMS7003;37327;54.254;18.504;2023-03-15T07:55:47;0;0;0
51258;PMS7003;37327;54.254;18.504;2023-03-15T07:59:05;0;0;0
51258;PMS7003;37327;54.254;18.504;2023-03-15T08:02:22;1;0;0
51258;PMS7003;37327;54.254;18.504;2023-03-15T08:05:40;0;0;0
51258;PMS7003;37327;54.254;18.504;2023-03-15T08:08:58;0;0;0
51258;PMS7003;37327;54.254;18.504;2023-03-15T08:12:19;0;0;0
51258;PMS7003;37327;54.254;18.504;2023-03-15T08:15:38;0;0;0
51258;PMS7003;37327;54.254;18.504;2023-03-15T08:18:56;0;0;0
51258;PMS7003;37327;54.254;18.504;2023-03-15T08:22:13;0;0;0
51258;PMS7003;37327;54.254;18.504;2023-03-15T08:25:31;0;0;0
51258;PMS7003;37327;54.254;18.504;2023-03-15T08:28:49;0;0;0
51258;PMS7003;37327;54.254;18.504;2023-03-15T08:32:07;0;0;0
51258;PMS7003;37327;54.254;18.504;2023-03-15T08:35:25;0;0;0
51258;PMS7003;37327;54.254;18.504;2023-03-15T08:38:42;0;0;0
51258;PMS7003;37327;54.254;18.504;2023-03-15T08:42:00;0;0;0
51258;PMS7003;37327;54.254;18.504;2023-03-15T08:45:18;0;0;0
51258;PMS7003;37327;54.254;18.504;2023-03-15T08:48:35;2;0;0
51258;PMS7003;37327;54.254;18.504;2023-03-15T08:51:52;0;0;0
51258;PMS7003;37327;54.254;18.504;2023-03-15T08:55:10;0;0;0
51258;PMS7003;37327;54.254;18.504;2023-03-15T08:58:29;0;0;0
51258;PMS7003;37327;54.254;18.504;2023-03-15T09:01:47;1;0;0
51258;PMS7003;37327;54.254;18.504;2023-03-15T09:05:05;0;0;0
51258;PMS7003;37327;54.254;18.504;2023-03-15T09:08:25;0;0;0
51258;PMS7003;37327;54.254;18.504;2023-03-15T09:11:44;0;0;0
51258;PMS7003;37327;54.254;18.504;2023-03-15T09:15:01;0;0;0
51258;PMS7003;37327;54.254;18.504;2023-03-15T09:18:19;0;0;0
51258;PMS7003;37327;54.254;18.504;2023-03-15T09:21:37;0;0;0
51258;PMS7003;37327;54.254;18.504;2023-03-15T09:24:55;0;0;0
51258;PMS7003;37327;54.254;18.504;2023-03-15T09:28:12;0;0;0
51258;PMS7003;37327;54.254;18.504;2023-03-15T09:31:30;0;0;0
51258;PMS7003;37327;54.254;18.504;2023-03-15T09:34:47;2;0;0
51258;PMS7003;37327;54.254;18.504;2023-03-15T09:38:05;0;0;0
51258;PMS7003;37327;54.254;18.504;2023-03-15T09:45:06;0;0;0
51258;PMS7003;37327;54.254;18.504;2023-03-15T09:48:29;0;0;0
51258;PMS7003;37327;54.254;18.504;2023-03-15T09:51:57;0;0;0
51258;PMS7003;37327;54.254;18.504;2023-03-15T09:58:45;0;0;0
51258;PMS7003;37327;54.254;18.504;2023-03-15T10:02:23;0;0;0
51258;PMS7003;37327;54.254;18.504;2023-03-15T10:05:38;0;0;0
51258;PMS7003;37327;54.254;18.504;2023-03-15T10:08:59;0;0;0
51258;PMS7003;37327;54.254;18.504;2023-03-15T10:12:22;0;0;0
51258;PMS7003;37327;54.254;18.504;2023-03-15T10:26:17;0;0;0
51258;PMS7003;37327;54.254;18.504;2023-03-15T10:29:38;0;0;0
51258;PMS7003;37327;54.254;18.504;2023-03-15T10:32:56;1;0;0
51258;PMS7003;37327;54.254;18.504;2023-03-15T10:36:19;0;0;0
51258;PMS7003;37327;54.254;18.504;2023-03-15T10:39:38;0;0;0
51258;PMS7003;37327;54.254;18.504;2023-03-15T10:43:02;0;0;0
51258;PMS7003;37327;54.254;18.504;2023-03-15T10:46:30;1;0;0
51258;PMS7003;37327;54.254;18.504;2023-03-15T10:49:48;0;0;0
51258;PMS7003;37327;54.254;18.504;2023-03-15T10:53:09;0;0;0
51258;PMS7003;37327;54.254;18.504;2023-03-15T10:56:54;0;0;0
51258;PMS7003;37327;54.254;18.504;2023-03-15T11:00:06;0;0;0
51258;PMS7003;37327;54.254;18.504;2023-03-15T11:03:34;0;0;0
51258;PMS7003;37327;54.254;18.504;2023-03-15T11:10:20;1;0;0
51258;PMS7003;37327;54.254;18.504;2023-03-15T11:13:39;0;0;0
51258;PMS7003;37327;54.254;18.504;2023-03-15T11:16:57;0;0;0
51258;PMS7003;37327;54.254;18.504;2023-03-15T11:23:48;0;0;0
51258;PMS7003;37327;54.254;18.504;2023-03-15T11:27:11;0;0;0
51258;PMS7003;37327;54.254;18.504;2023-03-15T11:30:32;0;0;0
51258;PMS7003;37327;54.254;18.504;2023-03-15T11:37:22;1;0;0
51258;PMS7003;37327;54.254;18.504;2023-03-15T11:40:47;0;0;0
51258;PMS7003;37327;54.254;18.504;2023-03-15T11:44:23;0;0;0
51258;PMS7003;37327;54.254;18.504;2023-03-15T11:47:41;0;0;0
51258;PMS7003;37327;54.254;18.504;2023-03-15T11:51:06;1;0;0
51258;PMS7003;37327;54.254;18.504;2023-03-15T11:54:28;1;0;0
51258;PMS7003;37327;54.254;18.504;2023-03-15T11:57:47;0;0;0
51258;PMS7003;37327;54.254;18.504;2023-03-15T12:01:08;0;0;0
51258;PMS7003;37327;54.254;18.504;2023-03-15T12:08:15;0;0;0
51258;PMS7003;37327;54.254;18.504;2023-03-15T12:18:24;0;0;0
51258;PMS7003;37327;54.254;18.504;2023-03-15T12:21:50;0;0;0
51258;PMS7003;37327;54.254;18.504;2023-03-15T12:25:14;0;0;0
51258;PMS7003;37327;54.254;18.504;2023-03-15T12:28:37;0;0;0
51258;PMS7003;37327;54.254;18.504;2023-03-15T12:32:06;0;0;0
51258;PMS7003;37327;54.254;18.504;2023-03-15T12:35:31;0;0;0
51258;PMS7003;37327;54.254;18.504;2023-03-15T12:38:59;0;0;0
51258;PMS7003;37327;54.254;18.504;2023-03-15T12:45:47;0;0;0
51258;PMS7003;37327;54.254;18.504;2023-03-15T12:49:05;0;0;0
51258;PMS7003;37327;54.254;18.504;2023-03-15T12:52:32;0;0;0
51258;PMS7003;37327;54.254;18.504;2023-03-15T12:55:57;0;0;0
51258;PMS7003;37327;54.254;18.504;2023-03-15T12:59:22;0;0;0
51258;PMS7003;37327;54.254;18.504;2023-03-15T13:02:48;0;0;0
51258;PMS7003;37327;54.254;18.504;2023-03-15T13:09:47;0;0;0
51258;PMS7003;37327;54.254;18.504;2023-03-15T13:13:13;0;0;0
51258;PMS7003;37327;54.254;18.504;2023-03-15T13:16:42;0;0;0
51258;PMS7003;37327;54.254;18.504;2023-03-15T13:23:38;0;0;0
51258;PMS7003;37327;54.254;18.504;2023-03-15T13:30:35;0;0;0
51258;PMS7003;37327;54.254;18.504;2023-03-15T13:33:56;0;0;0
51258;PMS7003;37327;54.254;18.504;2023-03-15T13:40:44;0;0;0
51258;PMS7003;37327;54.254;18.504;2023-03-15T13:44:03;0;0;0
51258;PMS7003;37327;54.254;18.504;2023-03-15T13:47:27;0;0;0
51258;PMS7003;37327;54.254;18.504;2023-03-15T13:50:47;0;0;0
51258;PMS7003;37327;54.254;18.504;2023-03-15T13:57:34;1;0;0
51258;PMS7003;37327;54.254;18.504;2023-03-15T14:00:59;0;0;0
51258;PMS7003;37327;54.254;18.504;2023-03-15T14:04:21;1;0;0
51258;PMS7003;37327;54.254;18.504;2023-03-15T14:07:41;0;0;0
51258;PMS7003;37327;54.254;18.504;2023-03-15T14:14:36;1;0;0
51258;PMS7003;37327;54.254;18.504;2023-03-15T14:18:00;0;0;0
51258;PMS7003;37327;54.254;18.504;2023-03-15T14:21:28;0;0;0
51258;PMS7003;37327;54.254;18.504;2023-03-15T14:24:50;0;0;0
51258;PMS7003;37327;54.254;18.504;2023-03-15T14:28:13;0;0;0
51258;PMS7003;37327;54.254;18.504;2023-03-15T14:31:33;0;0;0
51258;PMS7003;37327;54.254;18.504;2023-03-15T14:35:01;0;0;0
51258;PMS7003;37327;54.254;18.504;2023-03-15T14:38:25;0;0;0
51258;PMS7003;37327;54.254;18.504;2023-03-15T14:41:48;0;0;0
51258;PMS7003;37327;54.254;18.504;2023-03-15T14:45:06;0;0;0
51258;PMS7003;37327;54.254;18.504;2023-03-15T14:48:26;0;0;0
51258;PMS7003;37327;54.254;18.504;2023-03-15T14:51:46;0;0;0
51258;PMS7003;37327;54.254;18.504;2023-03-15T14:55:12;0;0;0
51258;PMS7003;37327;54.254;18.504;2023-03-15T14:58:32;0;0;0
51258;PMS7003;37327;54.254;18.504;2023-03-15T15:01:52;0;0;0
51258;PMS7003;37327;54.254;18.504;2023-03-15T15:05:17;0;0;0
51258;PMS7003;37327;54.254;18.504;2023-03-15T15:08:43;0;0;0
51258;PMS7003;37327;54.254;18.504;2023-03-15T15:12:02;0;0;0
51258;PMS7003;37327;54.254;18.504;2023-03-15T15:15:20;0;0;0
51258;PMS7003;37327;54.254;18.504;2023-03-15T15:18:38;0;0;0
51258;PMS7003;37327;54.254;18.504;2023-03-15T15:21:56;0;0;0
51258;PMS7003;37327;54.254;18.504;2023-03-15T15:25:14;0;0;0
51258;PMS7003;37327;54.254;18.504;2023-03-15T15:28:34;0;0;0
51258;PMS7003;37327;54.254;18.504;2023-03-15T15:31:53;0;0;0
51258;PMS7003;37327;54.254;18.504;2023-03-15T15:35:11;0;0;0
51258;PMS7003;37327;54.254;18.504;2023-03-15T15:38:31;0;0;0
51258;PMS7003;37327;54.254;18.504;2023-03-15T15:41:55;0;0;0
51258;PMS7003;37327;54.254;18.504;2023-03-15T15:45:14;0;0;0
51258;PMS7003;37327;54.254;18.504;2023-03-15T15:48:33;0;0;0
51258;PMS7003;37327;54.254;18.504;2023-03-15T15:51:50;0;0;0
51258;PMS7003;37327;54.254;18.504;2023-03-15T15:55:11;0;0;0
51258;PMS7003;37327;54.254;18.504;2023-03-15T15:58:35;0;0;0
51258;PMS7003;37327;54.254;18.504;2023-03-15T16:01:53;0;0;0
51258;PMS7003;37327;54.254;18.504;2023-03-15T16:05:11;0;0;0
51258;PMS7003;37327;54.254;18.504;2023-03-15T16:08:31;0;0;0
51258;PMS7003;37327;54.254;18.504;2023-03-15T16:11:55;0;0;0
51258;PMS7003;37327;54.254;18.504;2023-03-15T16:15:14;0;0;0
51258;PMS7003;37327;54.254;18.504;2023-03-15T16:18:32;0;0;0
51258;PMS7003;37327;54.254;18.504;2023-03-15T16:21:50;0;0;0
51258;PMS7003;37327;54.254;18.504;2023-03-15T16:25:14;0;0;0
51258;PMS7003;37327;54.254;18.504;2023-03-15T16:28:38;0;0;0
51258;PMS7003;37327;54.254;18.504;2023-03-15T16:31:56;0;0;0
51258;PMS7003;37327;54.254;18.504;2023-03-15T16:35:14;0;0;0
51258;PMS7003;37327;54.254;18.504;2023-03-15T16:38:32;0;0;0
51258;PMS7003;37327;54.254;18.504;2023-03-15T16:41:51;0;0;0
51258;PMS7003;37327;54.254;18.504;2023-03-15T16:45:12;0;0;0
51258;PMS7003;37327;54.254;18.504;2023-03-15T16:48:31;0;0;0
51258;PMS7003;37327;54.254;18.504;2023-03-15T16:51:49;0;0;0
51258;PMS7003;37327;54.254;18.504;2023-03-15T16:55:11;1;0;0
51258;PMS7003;37327;54.254;18.504;2023-03-15T16:58:30;0;0;0
51258;PMS7003;37327;54.254;18.504;2023-03-15T17:01:47;0;0;0
51258;PMS7003;37327;54.254;18.504;2023-03-15T17:05:06;0;0;0
51258;PMS7003;37327;54.254;18.504;2023-03-15T17:08:24;0;0;0
51258;PMS7003;37327;54.254;18.504;2023-03-15T17:11:42;1;0;0
51258;PMS7003;37327;54.254;18.504;2023-03-15T17:15:02;2;0;0
51258;PMS7003;37327;54.254;18.504;2023-03-15T17:18:21;0;0;0
51258;PMS7003;37327;54.254;18.504;2023-03-15T17:21:40;0;0;0
51258;PMS7003;37327;54.254;18.504;2023-03-15T17:24:59;0;0;0
51258;PMS7003;37327;54.254;18.504;2023-03-15T17:28:17;0;0;0
51258;PMS7003;37327;54.254;18.504;2023-03-15T17:31:34;0;0;0
51258;PMS7003;37327;54.254;18.504;2023-03-15T17:34:53;0;0;0
51258;PMS7003;37327;54.254;18.504;2023-03-15T17:38:16;0;0;0
51258;PMS7003;37327;54.254;18.504;2023-03-15T17:41:37;0;0;0
51258;PMS7003;37327;54.254;18.504;2023-03-15T17:44:58;0;0;0
51258;PMS7003;37327;54.254;18.504;2023-03-15T17:48:19;0;0;0
51258;PMS7003;37327;54.254;18.504;2023-03-15T17:51:37;0;0;0
51258;PMS7003;37327;54.254;18.504;2023-03-15T17:54:54;0;0;0
51258;PMS7003;37327;54.254;18.504;2023-03-15T17:58:15;1;0;0
51258;PMS7003;37327;54.254;18.504;2023-03-15T18:01:35;0;0;0
51258;PMS7003;37327;54.254;18.504;2023-03-15T18:04:54;0;0;0
51258;PMS7003;37327;54.254;18.504;2023-03-15T18:08:13;1;0;0
51258;PMS7003;37327;54.254;18.504;2023-03-15T18:11:36;1;1;0
51258;PMS7003;37327;54.254;18.504;2023-03-15T18:14:58;1;0;0
51258;PMS7003;37327;54.254;18.504;2023-03-15T18:18:16;0;0;0
51258;PMS7003;37327;54.254;18.504;2023-03-15T18:21:34;0;0;0
51258;PMS7003;37327;54.254;18.504;2023-03-15T18:24:51;0;0;0
51258;PMS7003;37327;54.254;18.504;2023-03-15T18:28:09;0;0;0
51258;PMS7003;37327;54.254;18.504;2023-03-15T18:31:27;0;0;0
51258;PMS7003;37327;54.254;18.504;2023-03-15T18:34:44;1;1;0
51258;PMS7003;37327;54.254;18.504;2023-03-15T18:38:03;0;0;0
51258;PMS7003;37327;54.254;18.504;2023-03-15T18:41:22;2;1;0
51258;PMS7003;37327;54.254;18.504;2023-03-15T18:44:40;21;18;13
51258;PMS7003;37327;54.254;18.504;2023-03-15T18:47:59;17;13;9
51258;PMS7003;37327;54.254;18.504;2023-03-15T18:51:17;8;7;6
51258;PMS7003;37327;54.254;18.504;2023-03-15T18:54:38;5;4;3
51258;PMS7003;37327;54.254;18.504;2023-03-15T18:57:56;3;3;2
51258;PMS7003;37327;54.254;18.504;2023-03-15T19:01:14;2;2;1
51258;PMS7003;37327;54.254;18.504;2023-03-15T19:04:32;1;0;0
51258;PMS7003;37327;54.254;18.504;2023-03-15T19:07:50;1;1;1
51258;PMS7003;37327;54.254;18.504;2023-03-15T19:11:08;0;0;0
51258;PMS7003;37327;54.254;18.504;2023-03-15T19:14:27;0;0;0
51258;PMS7003;37327;54.254;18.504;2023-03-15T19:17:46;2;1;0
51258;PMS7003;37327;54.254;18.504;2023-03-15T19:21:05;0;0;0
51258;PMS7003;37327;54.254;18.504;2023-03-15T19:24:22;2;0;0
51258;PMS7003;37327;54.254;18.504;2023-03-15T19:27:40;1;0;0
51258;PMS7003;37327;54.254;18.504;2023-03-15T19:30:58;0;0;0
51258;PMS7003;37327;54.254;18.504;2023-03-15T19:34:15;1;0;0
51258;PMS7003;37327;54.254;18.504;2023-03-15T19:37:32;1;0;0
51258;PMS7003;37327;54.254;18.504;2023-03-15T19:40:50;0;0;0
51258;PMS7003;37327;54.254;18.504;2023-03-15T19:44:48;1;1;1
51258;PMS7003;37327;54.254;18.504;2023-03-15T19:48:06;2;0;0
51258;PMS7003;37327;54.254;18.504;2023-03-15T19:51:24;2;2;1
51258;PMS7003;37327;54.254;18.504;2023-03-15T19:54:42;0;0;0
51258;PMS7003;37327;54.254;18.504;2023-03-15T19:58:02;1;1;0
51258;PMS7003;37327;54.254;18.504;2023-03-15T20:01:20;2;1;1
51258;PMS7003;37327;54.254;18.504;2023-03-15T20:04:37;1;1;0
51258;PMS7003;37327;54.254;18.504;2023-03-15T20:07:55;1;0;0
51258;PMS7003;37327;54.254;18.504;2023-03-15T20:11:13;2;0;0
51258;PMS7003;37327;54.254;18.504;2023-03-15T20:14:40;1;0;0
51258;PMS7003;37327;54.254;18.504;2023-03-15T20:17:57;1;1;1
51258;PMS7003;37327;54.254;18.504;2023-03-15T20:21:15;1;0;0
51258;PMS7003;37327;54.254;18.504;2023-03-15T20:24:34;1;0;0
51258;PMS7003;37327;54.254;18.504;2023-03-15T20:27:51;0;0;0
51258;PMS7003;37327;54.254;18.504;2023-03-15T20:31:09;2;1;1
51258;PMS7003;37327;54.254;18.504;2023-03-15T20:34:30;4;1;1
51258;PMS7003;37327;54.254;18.504;2023-03-15T20:37:47;1;1;1
51258;PMS7003;37327;54.254;18.504;2023-03-15T20:41:08;5;2;2
51258;PMS7003;37327;54.254;18.504;2023-03-15T20:44:29;3;2;2
51258;PMS7003;37327;54.254;18.504;2023-03-15T20:47:47;3;3;2
51258;PMS7003;37327;54.254;18.504;2023-03-15T20:51:05;6;3;3
51258;PMS7003;37327;54.254;18.504;2023-03-15T20:54:22;1;1;1
51258;PMS7003;37327;54.254;18.504;2023-03-15T20:57:40;2;2;2
51258;PMS7003;37327;54.254;18.504;2023-03-15T21:04:25;2;1;1
51258;PMS7003;37327;54.254;18.504;2023-03-15T21:07:44;4;1;1
51258;PMS7003;37327;54.254;18.504;2023-03-15T21:11:02;6;3;2
51258;PMS7003;37327;54.254;18.504;2023-03-15T21:14:21;4;3;2
51258;PMS7003;37327;54.254;18.504;2023-03-15T21:17:38;2;1;0
51258;PMS7003;37327;54.254;18.504;2023-03-15T21:21:00;2;2;1
51258;PMS7003;37327;54.254;18.504;2023-03-15T21:24:19;3;2;2
51258;PMS7003;37327;54.254;18.504;2023-03-15T21:27:37;4;3;1
51258;PMS7003;37327;54.254;18.504;2023-03-15T21:30:54;5;2;1
51258;PMS7003;37327;54.254;18.504;2023-03-15T21:34:12;3;2;2
51258;PMS7003;37327;54.254;18.504;2023-03-15T21:37:29;4;2;2
51258;PMS7003;37327;54.254;18.504;2023-03-15T21:40:48;2;1;1
51258;PMS7003;37327;54.254;18.504;2023-03-15T21:44:14;4;3;3
51258;PMS7003;37327;54.254;18.504;2023-03-15T21:47:33;4;3;2
51258;PMS7003;37327;54.254;18.504;2023-03-15T21:50:50;0;0;0
51258;PMS7003;37327;54.254;18.504;2023-03-15T21:54:10;2;1;1
51258;PMS7003;37327;54.254;18.504;2023-03-15T21:57:29;2;2;0
51258;PMS7003;37327;54.254;18.504;2023-03-15T22:00:55;1;1;0
51258;PMS7003;37327;54.254;18.504;2023-03-15T22:04:13;0;0;0
51258;PMS7003;37327;54.254;18.504;2023-03-15T22:07:30;1;1;0
51258;PMS7003;37327;54.254;18.504;2023-03-15T22:10:55;3;2;0
51258;PMS7003;37327;54.254;18.504;2023-03-15T22:14:14;2;0;0
51258;PMS7003;37327;54.254;18.504;2023-03-15T22:17:31;0;0;0
51258;PMS7003;37327;54.254;18.504;2023-03-15T22:20:49;4;3;2
51258;PMS7003;37327;54.254;18.504;2023-03-15T22:24:07;1;1;1
51258;PMS7003;37327;54.254;18.504;2023-03-15T22:27:25;2;1;1
51258;PMS7003;37327;54.254;18.504;2023-03-15T22:30:44;2;1;1
51258;PMS7003;37327;54.254;18.504;2023-03-15T22:34:04;0;0;0
51258;PMS7003;37327;54.254;18.504;2023-03-15T22:37:21;1;0;0
51258;PMS7003;37327;54.254;18.504;2023-03-15T22:40:39;3;1;0
51258;PMS7003;37327;54.254;18.504;2023-03-15T22:43:58;2;2;1
51258;PMS7003;37327;54.254;18.504;2023-03-15T22:47:15;0;0;0
51258;PMS7003;37327;54.254;18.504;2023-03-15T22:50:32;3;0;0
51258;PMS7003;37327;54.254;18.504;2023-03-15T22:53:50;1;1;0
51258;PMS7003;37327;54.254;18.504;2023-03-15T22:57:07;1;1;0
51258;PMS7003;37327;54.254;18.504;2023-03-15T23:00:28;0;0;0
51258;PMS7003;37327;54.254;18.504;2023-03-15T23:03:45;1;1;0
51258;PMS7003;37327;54.254;18.504;2023-03-15T23:07:03;1;1;1
51258;PMS7003;37327;54.254;18.504;2023-03-15T23:10:20;2;2;0
51258;PMS7003;37327;54.254;18.504;2023-03-15T23:13:38;1;0;0
51258;PMS7003;37327;54.254;18.504;2023-03-15T23:16:55;2;1;0
51258;PMS7003;37327;54.254;18.504;2023-03-15T23:20:13;1;0;0
51258;PMS7003;37327;54.254;18.504;2023-03-15T23:23:32;1;0;0
51258;PMS7003;37327;54.254;18.504;2023-03-15T23:26:50;0;0;0